WXM80 ListenWXM80 Stop

You find our weather info also at:

UK Metoffice

WeatherCloud

Weather Underground

Northeastern Weather Network

AWEKAS

Citizen Weather Observer Program (CWOP)

HAMweather, WeatherForYou, PWS Weather


Weather Underground History page Text

Daily Summary for October 11, 2017 Units:  English    Metric   Both
« Previous Day
Next Day »
Daily Weekly Monthly Yearly Custom
  High: Low: Average:
Temperature: 73.8 °F 59.9 °F 65.8 °F
Dew Point: 65.8 °F 54.9 °F 61.6 °F
Humidity: 97 % 73 % 87 %
Wind Speed: 5.6 mph 0.0 mph 1.4 mph
Wind Gust: 10.4 mph - -
Wind:- - East
Pressure: 30.16 in 29.59 in -
Precipitation: 0.04 in    
Historical Graphs
 
 
Tabular Data for October 11, 2017
Time Temperature Dew Point Pressure Wind Wind Speed Wind Gust Humidity Rainfall Rate (Hourly)
00:04 63.0 °F 60.9 °F 29.87 in Calm     93 % 0.00 in
00:09 62.9 °F 60.8 °F 29.96 in Calm     93 % 0.00 in
00:14 62.9 °F 61.1 °F 29.92 in Calm     94 % 0.00 in
00:19 62.9 °F 61.1 °F 29.96 in Calm     94 % 0.00 in
00:25 62.8 °F 61.0 °F 29.96 in Calm     94 % 0.00 in
00:30 62.8 °F 61.0 °F 29.95 in Calm     94 % 0.00 in
00:35 62.7 °F 60.9 °F 29.91 in Calm   1.2 mph 94 % 0.00 in
00:40 62.7 °F 60.9 °F 29.91 in Calm     94 % 0.00 in
00:45 62.7 °F 60.9 °F 29.85 in Calm     94 % 0.00 in
00:50 62.6 °F 60.8 °F 29.92 in Calm     94 % 0.00 in
00:55 62.6 °F 60.8 °F 29.90 in Calm     94 % 0.00 in
01:00 62.5 °F 60.7 °F 29.89 in Calm     94 % 0.00 in
01:05 62.5 °F 60.7 °F 29.86 in Calm     94 % 0.00 in
01:10 62.4 °F 60.7 °F 29.87 in Calm     94 % 0.00 in
01:15 62.3 °F 60.6 °F 29.85 in Calm     94 % 0.00 in
01:20 62.3 °F 60.6 °F 29.79 in Calm     94 % 0.00 in
01:26 62.2 °F 60.5 °F 29.81 in Calm     94 % 0.00 in
01:31 62.1 °F 60.4 °F 30.05 in Calm     94 % 0.00 in
01:36 62.0 °F 60.3 °F 30.05 in Calm     94 % 0.00 in
01:41 61.9 °F 60.2 °F 29.90 in Calm     94 % 0.00 in
01:46 61.8 °F 60.1 °F 29.88 in Calm     94 % 0.00 in
01:51 61.8 °F 60.1 °F 29.92 in Calm     94 % 0.00 in
01:56 61.7 °F 60.0 °F 29.94 in Calm     94 % 0.00 in
02:01 61.6 °F 59.9 °F 29.94 in Calm     94 % 0.00 in
02:06 61.6 °F 59.9 °F 29.97 in Calm     94 % 0.00 in
02:11 61.6 °F 60.2 °F 29.82 in Calm     95 % 0.00 in
02:16 61.5 °F 60.1 °F 29.89 in Calm     95 % 0.00 in
02:22 61.5 °F 60.1 °F 29.91 in Calm     95 % 0.00 in
02:27 61.5 °F 60.1 °F 29.83 in Calm     95 % 0.00 in
02:32 61.4 °F 60.0 °F 29.87 in Calm     95 % 0.00 in
02:37 61.3 °F 59.9 °F 29.80 in Calm   1.2 mph 95 % 0.00 in
02:42 61.3 °F 59.9 °F 29.80 in Calm     95 % 0.00 in
02:47 61.2 °F 59.8 °F 29.94 in Calm     95 % 0.00 in
02:52 61.1 °F 59.7 °F 29.94 in Calm   1.2 mph 95 % 0.00 in
02:57 61.0 °F 59.6 °F 29.92 in Calm     95 % 0.00 in
03:02 61.0 °F 59.6 °F 29.99 in Calm     95 % 0.00 in
03:07 60.9 °F 59.5 °F 30.02 in Calm     95 % 0.00 in
03:12 60.8 °F 59.4 °F 29.90 in Calm     95 % 0.00 in
03:17 60.7 °F 59.3 °F 29.90 in Calm     95 % 0.00 in
03:22 60.7 °F 59.3 °F 29.94 in Calm     95 % 0.00 in
03:27 60.6 °F 59.2 °F 30.00 in West 0.3 mph 1.2 mph 95 % 0.00 in
03:32 60.5 °F 59.1 °F 29.94 in Calm     95 % 0.00 in
03:38 60.4 °F 59.0 °F 29.92 in Calm     95 % 0.00 in
03:43 60.4 °F 59.0 °F 29.92 in Calm     95 % 0.00 in
03:48 60.3 °F 58.9 °F 30.01 in Calm     95 % 0.00 in
03:53 60.2 °F 58.8 °F 29.95 in Calm     95 % 0.00 in
03:58 60.1 °F 58.7 °F 29.90 in Calm     95 % 0.00 in
04:03 60.0 °F 58.6 °F 29.94 in Calm     95 % 0.00 in
04:08 60.0 °F 58.6 °F 29.88 in Calm     95 % 0.00 in
04:13 60.0 °F 58.6 °F 29.88 in Calm   1.2 mph 95 % 0.00 in
04:18 59.9 °F 58.5 °F 30.02 in Calm     95 % 0.00 in
04:23 59.9 °F 58.5 °F 29.90 in Calm     95 % 0.00 in
04:28 59.9 °F 58.5 °F 29.97 in Calm     95 % 0.00 in
04:29 59.9 °F 58.5 °F 29.98 in Calm     95 % 0.00 in
04:34 59.9 °F 58.8 °F 29.94 in Calm     96 % 0.00 in
04:39 59.9 °F 58.8 °F 29.94 in Calm     96 % 0.00 in
04:44 60.0 °F 58.9 °F 29.80 in Calm     96 % 0.00 in
04:49 60.0 °F 58.9 °F 30.08 in Calm     96 % 0.00 in
04:54 60.0 °F 58.9 °F 30.04 in Calm     96 % 0.00 in
04:59 60.0 °F 58.9 °F 30.04 in Calm     96 % 0.00 in
05:01 60.0 °F 58.9 °F 30.05 in Calm     96 % 0.00 in
05:06 60.0 °F 58.9 °F 29.94 in Calm     96 % 0.00 in
05:11 60.1 °F 59.0 °F 29.92 in Calm     96 % 0.00 in
05:16 60.1 °F 59.0 °F 29.93 in Calm     96 % 0.00 in
05:21 60.2 °F 59.1 °F 29.99 in Calm     96 % 0.00 in
05:26 60.3 °F 59.2 °F 29.95 in Calm     96 % 0.00 in
05:31 60.4 °F 59.3 °F 29.96 in Calm     96 % 0.00 in
05:41 60.5 °F 59.4 °F 29.99 in Calm     96 % 0.00 in
05:46 60.5 °F 59.6 °F 29.83 in Calm     97 % 0.00 in
05:51 60.5 °F 59.6 °F 30.01 in Calm     97 % 0.00 in
05:56 60.5 °F 59.6 °F 29.91 in Calm     97 % 0.00 in
06:01 60.6 °F 59.7 °F 30.03 in Calm     97 % 0.00 in
06:06 60.6 °F 59.7 °F 30.00 in Calm     97 % 0.00 in
06:11 60.7 °F 59.8 °F 29.88 in Calm     97 % 0.00 in
06:16 60.8 °F 59.9 °F 29.86 in Calm     97 % 0.00 in
06:21 61.0 °F 60.1 °F 29.92 in NE 0.4 mph 3.5 mph 97 % 0.00 in
06:27 61.1 °F 60.2 °F 29.87 in ENE 1.6 mph 2.0 mph 97 % 0.00 in
06:32 61.1 °F 60.2 °F 29.84 in Calm   1.0 mph 97 % 0.00 in
06:37 61.2 °F 60.3 °F 29.92 in ENE 1.5 mph 3.5 mph 97 % 0.00 in
06:42 61.3 °F 60.4 °F 29.91 in ENE 2.0 mph 3.5 mph 97 % 0.00 in
06:47 61.3 °F 60.4 °F 29.90 in ENE 0.2 mph 1.2 mph 97 % 0.00 in
06:52 61.4 °F 60.5 °F 29.93 in ENE 0.1 mph 1.2 mph 97 % 0.00 in
06:57 61.6 °F 60.7 °F 29.95 in East 1.9 mph 3.5 mph 97 % 0.00 in
07:02 61.7 °F 60.8 °F 29.98 in ENE 1.6 mph 2.3 mph 97 % 0.00 in
07:07 61.8 °F 60.9 °F 30.00 in ENE 3.0 mph 4.6 mph 97 % 0.00 in
07:12 61.9 °F 61.0 °F 29.99 in NE 2.0 mph 4.6 mph 97 % 0.00 in
07:17 62.0 °F 61.1 °F 29.99 in NE 0.5 mph 3.5 mph 97 % 0.00 in
07:22 62.1 °F 60.9 °F 29.93 in NE 0.8 mph 2.3 mph 96 % 0.00 in
07:23 62.1 °F 60.9 °F 29.91 in NE 0.8 mph 2.3 mph 96 % 0.00 in
07:28 62.2 °F 61.0 °F 29.91 in ENE 2.1 mph 3.5 mph 96 % 0.00 in
07:33 62.4 °F 61.2 °F 29.99 in ENE 1.8 mph 3.5 mph 96 % 0.00 in
07:38 62.5 °F 61.3 °F 29.94 in ENE 0.3 mph 2.3 mph 96 % 0.00 in
07:43 62.6 °F 61.4 °F 29.92 in ENE 1.0 mph 4.0 mph 96 % 0.00 in
07:48 62.7 °F 61.5 °F 29.93 in Calm     96 % 0.00 in
07:53 62.8 °F 61.3 °F 30.03 in NE 0.3 mph 2.3 mph 95 % 0.00 in
08:03 63.0 °F 61.5 °F 29.98 in ENE 1.0 mph 1.2 mph 95 % 0.00 in
08:08 63.1 °F 61.6 °F 29.97 in ENE 0.4 mph 2.0 mph 95 % 0.00 in
08:14 63.2 °F 61.7 °F 29.79 in NE 0.1 mph 1.2 mph 95 % 0.00 in
08:19 63.3 °F 61.8 °F 30.01 in NE 1.1 mph 3.5 mph 95 % 0.00 in
08:24 63.4 °F 61.9 °F 30.04 in Calm   3.5 mph 95 % 0.00 in
08:29 63.6 °F 61.8 °F 30.02 in Calm     94 % 0.00 in
08:34 63.7 °F 61.9 °F 29.99 in Calm   1.2 mph 94 % 0.00 in
08:44 64.0 °F 62.2 °F 29.89 in NNE 2.7 mph 4.6 mph 94 % 0.00 in
08:49 64.2 °F 62.1 °F 30.00 in North 4.5 mph 6.9 mph 93 % 0.00 in
08:54 64.3 °F 62.2 °F 30.03 in North 2.3 mph 3.5 mph 93 % 0.00 in
08:59 64.5 °F 62.1 °F 30.02 in NNE 1.3 mph 3.5 mph 92 % 0.00 in
09:04 64.6 °F 62.2 °F 30.03 in NNE 2.3 mph 3.5 mph 92 % 0.00 in
09:09 64.8 °F 62.1 °F 29.99 in NNE 3.1 mph 8.1 mph 91 % 0.00 in
09:14 65.0 °F 62.0 °F 30.04 in NE 1.5 mph 6.9 mph 90 % 0.00 in
09:20 65.2 °F 62.2 °F 30.01 in ENE 2.1 mph 3.5 mph 90 % 0.00 in
09:25 65.3 °F 62.0 °F 29.98 in ENE 2.8 mph 4.0 mph 89 % 0.00 in
09:30 65.4 °F 61.8 °F 30.03 in ENE 2.9 mph 6.9 mph 88 % 0.00 in
09:35 65.6 °F 61.9 °F 30.04 in Calm   1.2 mph 88 % 0.00 in
09:40 65.8 °F 62.1 °F 29.93 in ENE 0.3 mph 1.2 mph 88 % 0.00 in
09:45 66.0 °F 62.3 °F 29.93 in ENE 0.2 mph 1.2 mph 88 % 0.00 in
09:50 66.2 °F 62.2 °F 29.99 in ENE 0.1 mph 1.2 mph 87 % 0.00 in
09:55 66.5 °F 62.5 °F 29.87 in NE 2.1 mph 3.5 mph 87 % 0.00 in
10:00 66.7 °F 62.4 °F 30.01 in NE 2.7 mph 4.0 mph 86 % 0.00 in
10:05 66.9 °F 62.9 °F 29.86 in NE 2.1 mph 3.5 mph 87 % 0.00 in
10:10 67.2 °F 63.2 °F 30.03 in NE 4.8 mph 9.2 mph 87 % 0.00 in
10:15 67.5 °F 63.2 °F 29.91 in NE 0.8 mph 3.5 mph 86 % 0.00 in
10:20 67.7 °F 63.4 °F 29.83 in NE 3.0 mph 3.5 mph 86 % 0.00 in
10:25 68.0 °F 63.7 °F 30.03 in NNW 1.7 mph 3.5 mph 86 % 0.00 in
10:30 68.1 °F 63.4 °F 29.96 in NNE 3.4 mph 5.8 mph 85 % 0.00 in
10:35 68.3 °F 63.6 °F 29.90 in ENE 1.9 mph 3.5 mph 85 % 0.00 in
10:40 68.5 °F 63.8 °F 29.98 in ENE 2.2 mph 8.0 mph 85 % 0.00 in
10:45 68.7 °F 63.3 °F 29.95 in NNE 4.1 mph 9.2 mph 83 % 0.00 in
10:50 69.0 °F 64.0 °F 30.03 in NE 3.1 mph 4.6 mph 84 % 0.00 in
10:55 69.2 °F 63.5 °F 30.08 in ENE 2.2 mph 8.1 mph 82 % 0.00 in
11:01 69.4 °F 63.7 °F 30.01 in East 5.6 mph 10.4 mph 82 % 0.00 in
11:05 69.5 °F 63.4 °F 29.97 in ENE 5.4 mph 10.4 mph 81 % 0.00 in
11:15 69.7 °F 63.6 °F 29.98 in ENE 2.0 mph 3.5 mph 81 % 0.00 in
11:20 69.9 °F 64.2 °F 29.97 in NE 2.0 mph 4.0 mph 82 % 0.00 in
11:25 69.9 °F 63.1 °F 29.96 in ENE 3.3 mph 8.1 mph 79 % 0.00 in
11:30 69.9 °F 63.4 °F 29.94 in ENE 2.2 mph 6.9 mph 80 % 0.00 in
11:35 69.8 °F 63.3 °F 29.85 in ENE 1.7 mph 3.5 mph 80 % 0.00 in
11:40 69.7 °F 63.3 °F 29.97 in ENE 2.2 mph 4.6 mph 80 % 0.00 in
11:45 70.0 °F 63.9 °F 29.95 in ENE 1.6 mph 3.5 mph 81 % 0.00 in
11:50 70.6 °F 64.8 °F 29.93 in ENE 1.4 mph 2.3 mph 82 % 0.00 in
12:05 73.1 °F 65.8 °F 29.98 in NE 1.5 mph 3.0 mph 78 % 0.00 in
12:10 73.7 °F 65.3 °F 29.96 in NE 4.2 mph 8.0 mph 75 % 0.00 in
12:15 73.8 °F 65.0 °F 29.84 in ENE 2.2 mph 3.5 mph 74 % 0.00 in
12:19 73.7 °F 64.9 °F 30.02 in ENE 3.1 mph 6.9 mph 74 % 0.00 in
12:21 73.6 °F 64.8 °F 29.97 in ENE 2.0 mph 2.3 mph 74 % 0.00 in
12:26 73.1 °F 64.3 °F 29.99 in ENE 1.5 mph 2.3 mph 74 % 0.00 in
12:31 72.6 °F 63.8 °F 29.86 in ENE 2.1 mph 3.5 mph 74 % 0.00 in
12:36 72.2 °F 63.8 °F 29.85 in ENE 1.1 mph 2.3 mph 75 % 0.00 in
12:39 72.1 °F 63.7 °F 29.79 in ENE 1.6 mph 3.5 mph 75 % 0.00 in
12:44 72.1 °F 64.1 °F 29.73 in ENE 1.7 mph 4.6 mph 76 % 0.00 in
12:49 72.0 °F 64.0 °F 29.87 in ENE 0.8 mph 2.3 mph 76 % 0.00 in
12:54 72.0 °F 64.4 °F 29.91 in ENE 2.7 mph 3.5 mph 77 % 0.00 in
12:59 72.3 °F 64.3 °F 29.89 in ENE 1.8 mph 4.6 mph 76 % 0.00 in
13:05 72.5 °F 64.5 °F 29.88 in ENE 2.4 mph 4.0 mph 76 % 0.00 in
13:10 72.7 °F 64.7 °F 29.91 in ENE 3.5 mph 3.5 mph 76 % 0.00 in
13:15 73.1 °F 65.1 °F 30.00 in ENE 2.5 mph 3.5 mph 76 % 0.00 in
13:20 73.4 °F 65.4 °F 29.94 in ENE 2.5 mph 4.0 mph 76 % 0.00 in
13:25 73.5 °F 64.7 °F 29.93 in ENE 2.4 mph 3.5 mph 74 % 0.00 in
13:30 73.5 °F 64.3 °F 29.88 in NE 3.5 mph 9.2 mph 73 % 0.00 in
13:35 73.6 °F 64.8 °F 29.83 in ENE 3.0 mph 5.8 mph 74 % 0.00 in
13:40 73.5 °F 64.3 °F 29.96 in East 3.3 mph 6.9 mph 73 % 0.00 in
13:44 73.5 °F 65.1 °F 29.88 in ENE 3.1 mph 4.0 mph 75 % 0.00 in
13:49 73.3 °F 64.9 °F 29.59 in NE 2.1 mph 4.6 mph 75 % 0.00 in
13:54 73.0 °F 64.6 °F 29.76 in ENE 1.5 mph 6.9 mph 75 % 0.00 in
13:59 72.8 °F 64.8 °F 29.81 in NNE 4.8 mph 8.1 mph 76 % 0.00 in
14:04 72.9 °F 65.3 °F 29.83 in ENE 3.9 mph 6.9 mph 77 % 0.00 in
14:06 73.1 °F 65.8 °F 29.91 in ENE 3.2 mph 5.8 mph 78 % 0.00 in
14:11 73.4 °F 65.4 °F 29.80 in NE 2.6 mph 4.6 mph 76 % 0.00 in
14:16 73.5 °F 64.7 °F 29.93 in East 5.0 mph 9.2 mph 74 % 0.00 in
14:21 73.4 °F 65.0 °F 30.09 in ENE 2.2 mph 3.5 mph 75 % 0.00 in
14:26 73.5 °F 65.1 °F 30.09 in ENE 2.3 mph 3.5 mph 75 % 0.00 in
14:31 73.5 °F 64.3 °F 30.09 in ENE 3.8 mph 4.0 mph 73 % 0.00 in
14:41 73.2 °F 64.8 °F 30.06 in ENE 2.5 mph 3.5 mph 75 % 0.00 in
14:46 73.0 °F 64.2 °F 30.05 in ENE 2.7 mph 4.6 mph 74 % 0.00 in
14:51 72.9 °F 63.7 °F 30.04 in ENE 3.9 mph 6.9 mph 73 % 0.00 in
14:56 72.6 °F 63.8 °F 30.05 in ENE 3.3 mph 4.0 mph 74 % 0.00 in
15:01 72.4 °F 64.0 °F 30.05 in East 2.9 mph 5.8 mph 75 % 0.00 in
15:06 72.2 °F 63.8 °F 30.04 in ENE 2.3 mph 3.5 mph 75 % 0.00 in
15:11 72.0 °F 63.6 °F 30.05 in East 2.5 mph 4.6 mph 75 % 0.00 in
15:17 71.7 °F 63.7 °F 30.04 in East 2.5 mph 4.6 mph 76 % 0.00 in
15:22 71.6 °F 64.0 °F 30.03 in East 2.3 mph 3.5 mph 77 % 0.00 in
15:27 71.8 °F 64.9 °F 30.04 in ENE 2.5 mph 3.5 mph 79 % 0.00 in
15:32 72.0 °F 64.8 °F 30.04 in ENE 3.4 mph 6.9 mph 78 % 0.00 in
15:37 72.1 °F 64.9 °F 30.03 in ENE 2.5 mph 3.5 mph 78 % 0.00 in
15:42 72.1 °F 64.5 °F 30.03 in ENE 2.9 mph 4.6 mph 77 % 0.00 in
15:47 72.1 °F 64.5 °F 30.02 in East 3.4 mph 6.0 mph 77 % 0.00 in
15:48 72.1 °F 64.5 °F 30.03 in East 3.1 mph 5.8 mph 77 % 0.00 in
15:53 72.0 °F 64.8 °F 30.03 in ENE 2.5 mph 3.5 mph 78 % 0.00 in
15:58 71.8 °F 64.6 °F 30.03 in ENE 2.6 mph 3.5 mph 78 % 0.00 in
16:03 71.5 °F 64.6 °F 30.03 in ENE 2.1 mph 4.6 mph 79 % 0.00 in
16:08 71.3 °F 64.4 °F 30.07 in East 2.5 mph 4.6 mph 79 % 0.00 in
16:13 71.2 °F 64.7 °F 30.03 in East 2.4 mph 3.5 mph 80 % 0.00 in
16:19 71.3 °F 65.2 °F 30.03 in ENE 1.9 mph 3.5 mph 81 % 0.00 in
16:24 71.5 °F 65.4 °F 30.02 in ENE 1.3 mph 3.5 mph 81 % 0.00 in
16:29 71.5 °F 65.4 °F 30.02 in ENE 1.4 mph 3.5 mph 81 % 0.00 in
16:34 71.4 °F 65.3 °F 30.02 in ENE 1.7 mph 3.5 mph 81 % 0.00 in
16:39 71.3 °F 65.2 °F 30.03 in ENE 2.0 mph 3.5 mph 81 % 0.00 in
16:44 71.2 °F 65.1 °F 30.02 in ENE 1.7 mph 3.5 mph 81 % 0.00 in
16:49 71.1 °F 65.0 °F 30.02 in ENE 1.8 mph 2.3 mph 81 % 0.00 in
16:54 71.1 °F 65.0 °F 30.02 in ENE 1.1 mph 2.3 mph 81 % 0.00 in
16:59 71.0 °F 65.2 °F 30.07 in ENE 1.1 mph 2.3 mph 82 % 0.00 in
17:04 71.0 °F 65.6 °F 30.02 in ENE 0.8 mph 2.3 mph 83 % 0.00 in
17:09 71.0 °F 65.2 °F 30.03 in ENE 0.9 mph 1.2 mph 82 % 0.00 in
17:14 70.9 °F 65.1 °F 30.03 in ENE 0.5 mph 1.2 mph 82 % 0.00 in
17:19 70.8 °F 65.0 °F 30.04 in ENE 0.3 mph 2.3 mph 82 % 0.00 in
17:24 70.7 °F 65.3 °F 30.04 in ENE 0.1 mph 1.2 mph 83 % 0.00 in
17:29 70.6 °F 64.8 °F 30.05 in ENE 0.2 mph 1.2 mph 82 % 0.00 in
17:34 70.6 °F 65.2 °F 30.05 in ENE 1.1 mph 3.5 mph 83 % 0.00 in
17:39 70.4 °F 64.6 °F 30.05 in ENE 2.8 mph 4.6 mph 82 % 0.00 in
17:44 70.4 °F 64.6 °F 30.11 in ENE 1.5 mph 3.5 mph 82 % 0.00 in
17:49 70.3 °F 64.9 °F 30.10 in ENE 0.4 mph 3.5 mph 83 % 0.00 in
17:54 70.2 °F 64.8 °F 30.10 in ENE 1.7 mph 3.5 mph 83 % 0.00 in
17:59 70.1 °F 65.0 °F 30.07 in ENE 0.5 mph 1.2 mph 84 % 0.00 in
18:00 70.1 °F 65.0 °F 30.08 in ENE 0.4 mph 1.2 mph 84 % 0.00 in
18:05 70.1 °F 65.4 °F 30.10 in Calm   1.2 mph 85 % 0.00 in
18:10 70.0 °F 65.3 °F 30.07 in ENE 0.2 mph 1.2 mph 85 % 0.00 in
18:15 69.9 °F 64.8 °F 30.07 in ENE 0.1 mph 1.2 mph 84 % 0.00 in
18:20 69.7 °F 64.6 °F 30.11 in Calm     84 % 0.00 in
18:25 69.6 °F 64.5 °F 30.13 in Calm   1.2 mph 84 % 0.00 in
18:30 69.5 °F 64.5 °F 30.08 in Calm   1.2 mph 84 % 0.00 in
18:35 69.5 °F 64.8 °F 30.08 in ENE 0.1 mph 1.2 mph 85 % 0.00 in
18:40 69.4 °F 64.4 °F 30.08 in Calm     84 % 0.00 in
18:50 69.2 °F 63.5 °F 30.08 in SE 0.4 mph 1.2 mph 82 % 0.00 in
18:51 69.2 °F 63.5 °F 30.08 in SE 0.2 mph 1.2 mph 82 % 0.00 in
18:56 69.0 °F 63.3 °F 30.08 in Calm   2.0 mph 82 % 0.00 in
19:01 68.9 °F 63.9 °F 30.08 in SE 0.2 mph 1.2 mph 84 % 0.00 in
19:06 68.8 °F 64.1 °F 30.08 in Calm   2.0 mph 85 % 0.01 in
19:11 68.6 °F 64.3 °F 30.13 in SE 1.0 mph 6.0 mph 86 % 0.00 in
19:16 68.4 °F 64.0 °F 30.09 in ESE 1.0 mph 2.0 mph 86 % 0.00 in
19:21 67.9 °F 63.9 °F 30.12 in ESE 1.0 mph 2.0 mph 87 % 0.00 in
19:26 67.6 °F 63.9 °F 30.14 in ESE 1.0 mph 3.0 mph 88 % 0.00 in
19:31 67.1 °F 63.1 °F 30.10 in ESE 1.0 mph 4.0 mph 87 % 0.00 in
19:36 66.7 °F 62.7 °F 30.09 in East 1.0 mph 3.0 mph 87 % 0.00 in
19:41 66.4 °F 62.7 °F 30.09 in East 1.0 mph 3.0 mph 88 % 0.00 in
19:46 66.1 °F 62.4 °F 30.08 in East 1.0 mph 2.0 mph 88 % 0.00 in
19:51 65.7 °F 62.4 °F 30.13 in East 1.0 mph 3.0 mph 89 % 0.00 in
19:56 65.5 °F 62.2 °F 30.13 in ESE 1.0 mph 5.0 mph 89 % 0.00 in
20:01 65.2 °F 61.9 °F 30.08 in SE 1.6 mph 3.5 mph 89 % 0.03 in
20:06 65.0 °F 61.7 °F 30.09 in ESE 1.8 mph 6.9 mph 89 % 0.03 in
20:11 64.8 °F 61.5 °F 30.09 in ESE 0.4 mph 3.5 mph 89 % 0.02 in
20:16 64.6 °F 61.6 °F 30.14 in ESE 0.3 mph 3.5 mph 90 % 0.01 in
20:21 64.4 °F 61.4 °F 30.14 in ESE 2.3 mph 3.5 mph 90 % 0.02 in
20:26 64.0 °F 61.0 °F 30.15 in East 1.5 mph 3.5 mph 90 % 0.02 in
20:31 63.9 °F 60.9 °F 30.12 in East 1.3 mph 3.5 mph 90 % 0.02 in
20:36 63.7 °F 60.7 °F 30.10 in ESE 1.6 mph 3.5 mph 90 % 0.01 in
20:41 63.6 °F 60.6 °F 30.10 in ESE 1.0 mph 3.5 mph 90 % 0.01 in
20:46 63.5 °F 60.5 °F 30.11 in East 2.1 mph 3.5 mph 90 % 0.01 in
20:51 63.3 °F 60.3 °F 30.09 in East 2.9 mph 5.0 mph 90 % 0.01 in
20:56 63.1 °F 60.1 °F 30.10 in East 2.5 mph 4.6 mph 90 % 0.01 in
21:01 63.0 °F 59.7 °F 30.11 in East 1.9 mph 3.5 mph 89 % 0.01 in
21:06 62.8 °F 59.2 °F 30.11 in East 2.2 mph 4.6 mph 88 % 0.01 in
21:11 62.6 °F 58.7 °F 30.11 in East 3.0 mph 5.0 mph 87 % 0.01 in
21:16 62.4 °F 58.2 °F 30.11 in East 2.0 mph 4.6 mph 86 % 0.01 in
21:21 62.4 °F 58.2 °F 30.11 in ESE 3.5 mph 5.8 mph 86 % 0.00 in
21:26 62.3 °F 58.1 °F 30.16 in ESE 2.0 mph 4.6 mph 86 % 0.00 in
21:31 62.3 °F 58.1 °F 30.16 in ESE 3.0 mph 9.2 mph 86 % 0.00 in
21:36 62.3 °F 57.7 °F 30.16 in ESE 3.2 mph 5.8 mph 85 % 0.00 in
21:41 62.2 °F 56.6 °F 30.16 in East 4.7 mph 10.4 mph 82 % 0.00 in
21:46 62.2 °F 56.6 °F 30.11 in East 3.3 mph 5.8 mph 82 % 0.00 in
21:56 62.2 °F 57.0 °F 30.12 in East 3.4 mph 4.6 mph 83 % 0.00 in
22:01 62.2 °F 56.6 °F 30.12 in East 3.4 mph 5.8 mph 82 % 0.00 in
22:06 62.2 °F 56.6 °F 30.12 in ESE 3.0 mph 4.6 mph 82 % 0.00 in
22:11 62.2 °F 56.6 °F 30.12 in East 2.9 mph 5.0 mph 82 % 0.00 in
22:16 62.1 °F 56.5 °F 30.11 in East 3.4 mph 4.6 mph 82 % 0.00 in
22:21 62.1 °F 55.9 °F 30.11 in East 2.4 mph 3.5 mph 80 % 0.00 in
22:26 62.0 °F 55.8 °F 30.11 in East 3.1 mph 5.8 mph 80 % 0.00 in
22:31 62.0 °F 55.8 °F 30.11 in East 3.4 mph 5.0 mph 80 % 0.00 in
22:41 62.0 °F 55.8 °F 30.11 in East 3.0 mph 3.5 mph 80 % 0.00 in
22:46 62.0 °F 56.1 °F 30.11 in East 3.5 mph 5.0 mph 81 % 0.00 in
22:51 62.0 °F 56.1 °F 30.10 in East 4.9 mph 7.0 mph 81 % 0.00 in
22:56 62.0 °F 55.8 °F 30.11 in East 3.9 mph 6.9 mph 80 % 0.00 in
23:01 62.0 °F 56.1 °F 30.11 in East 4.8 mph 6.0 mph 81 % 0.00 in
23:06 62.0 °F 56.1 °F 30.13 in East 3.2 mph 5.8 mph 81 % 0.00 in
23:12 62.0 °F 55.8 °F 30.11 in ESE 4.2 mph 6.9 mph 80 % 0.00 in
23:17 62.0 °F 55.4 °F 30.12 in East 3.8 mph 5.8 mph 79 % 0.00 in
23:22 62.0 °F 55.4 °F 30.10 in SE 2.0 mph 4.6 mph 79 % 0.00 in
23:26 62.0 °F 55.1 °F 30.11 in East 3.2 mph 5.8 mph 78 % 0.00 in
23:31 61.9 °F 55.0 °F 30.10 in East 2.2 mph 3.5 mph 78 % 0.00 in
23:36 61.8 °F 54.9 °F 30.10 in East 1.8 mph 3.5 mph 78 % 0.00 in
23:41 61.8 °F 54.9 °F 30.11 in East 1.5 mph 5.8 mph 78 % 0.00 in
23:46 61.7 °F 55.1 °F 30.12 in ESE 1.6 mph 3.5 mph 79 % 0.00 in
23:51 61.7 °F 55.1 °F 30.12 in East 1.6 mph 3.5 mph 79 % 0.00 in
23:56 61.7 °F 55.5 °F 30.13 in ENE 1.5 mph 2.3 mph 80 % 0.00 in
Crab Meadow Weather
Compliments of Weather Underground - 3 mb

Script developed by  Jim McMurry - jmcmurry@mwt.net Adapted for the template by  Wim van der Kuil - Leuven-Template.eu

Weather Terms: Heat Index - The apparent temperature that describes the combined effect of high temperatures and high levels of humidity, which reduces the body's ability to cool itself.